createdAt,value
2018-12-22T00:00:40.724Z,8.37
2018-12-22T00:03:07.803Z,8.27
2018-12-22T00:05:34.875Z,8.03
2018-12-22T00:08:01.964Z,8.60
2018-12-22T00:10:29.139Z,8.57
2018-12-22T00:12:56.210Z,7.97
2018-12-22T00:15:23.405Z,7.30
2018-12-22T00:17:50.489Z,8.30
2018-12-22T00:20:17.555Z,7.67
2018-12-22T00:22:44.638Z,7.83
2018-12-22T00:25:11.818Z,7.83
2018-12-22T00:27:38.950Z,8.77
2018-12-22T00:30:06.855Z,8.27
2018-12-22T00:32:34.098Z,8.50
2018-12-22T00:35:01.288Z,7.57
2018-12-22T00:37:28.457Z,8.50
2018-12-22T00:39:55.662Z,8.63
2018-12-22T00:42:22.759Z,7.57
2018-12-22T00:44:49.946Z,8.07
2018-12-22T00:47:17.123Z,8.80
2018-12-22T00:49:44.210Z,8.77
2018-12-22T00:52:11.314Z,8.17
2018-12-22T00:54:38.526Z,8.00
2018-12-22T00:57:05.602Z,8.60
2018-12-22T00:59:32.693Z,10.00
2018-12-22T01:01:59.995Z,8.50
2018-12-22T01:04:27.095Z,8.60
2018-12-22T01:06:54.180Z,7.60
2018-12-22T01:09:21.574Z,8.27
2018-12-22T01:11:48.663Z,8.07
2018-12-22T01:14:15.957Z,9.50
2018-12-22T01:16:44.783Z,8.63
2018-12-22T01:19:12.466Z,8.63
2018-12-22T01:21:39.654Z,8.63
2018-12-22T01:24:06.751Z,8.83
2018-12-22T01:26:33.834Z,9.13
2018-12-22T01:29:00.938Z,9.50
2018-12-22T01:31:28.009Z,9.50
2018-12-22T01:33:55.303Z,8.67
2018-12-22T01:36:22.478Z,9.07
2018-12-22T01:38:49.559Z,8.30
2018-12-22T01:41:16.630Z,9.43
2018-12-22T01:43:43.714Z,8.30
2018-12-22T01:46:11.006Z,8.93
2018-12-22T01:48:38.200Z,8.23
2018-12-22T01:51:05.270Z,7.93
2018-12-22T01:53:32.482Z,7.97
2018-12-22T01:55:59.664Z,8.70
2018-12-22T01:58:26.842Z,8.53
2018-12-22T02:00:53.920Z,8.07
2018-12-22T02:03:20.984Z,8.17
2018-12-22T02:05:48.155Z,8.43
2018-12-22T02:08:15.226Z,8.53
2018-12-22T02:10:42.514Z,8.20
2018-12-22T02:13:09.694Z,8.83
2018-12-22T02:15:36.770Z,7.43
2018-12-22T02:18:03.964Z,8.40
2018-12-22T02:20:31.028Z,8.37
2018-12-22T02:22:58.097Z,7.83
2018-12-22T02:25:25.174Z,7.13
2018-12-22T02:27:52.267Z,7.27
2018-12-22T02:30:21.597Z,7.53
2018-12-22T02:32:48.663Z,7.20
2018-12-22T02:35:15.832Z,8.30
2018-12-22T02:37:42.898Z,7.87
2018-12-22T02:40:10.176Z,7.13
2018-12-22T02:42:37.350Z,7.83
2018-12-22T02:45:05.082Z,7.80
2018-12-22T02:47:32.386Z,6.67
2018-12-22T02:49:59.540Z,7.07
2018-12-22T02:52:26.618Z,7.43
2018-12-22T02:54:53.801Z,7.27
2018-12-22T02:57:20.891Z,6.33
2018-12-22T02:59:47.987Z,5.97
2018-12-22T03:02:15.220Z,5.27
2018-12-22T03:04:42.279Z,5.20
2018-12-22T03:07:09.498Z,4.83
2018-12-22T03:09:36.556Z,5.13
2018-12-22T03:12:03.831Z,4.87
2018-12-22T03:14:30.899Z,4.57
2018-12-22T03:16:57.976Z,4.00
2018-12-22T03:19:25.160Z,4.10
2018-12-22T03:21:52.326Z,3.90
2018-12-22T03:24:19.495Z,3.30
2018-12-22T03:26:46.778Z,3.37
2018-12-22T03:29:15.771Z,3.70
2018-12-22T03:31:43.073Z,3.20
2018-12-22T03:34:10.630Z,3.63
2018-12-22T03:36:37.711Z,3.30
2018-12-22T03:39:07.213Z,2.97
2018-12-22T03:41:34.326Z,3.50
2018-12-22T03:44:01.503Z,3.70
2018-12-22T03:46:28.622Z,2.80
2018-12-22T03:48:55.681Z,3.50
2018-12-22T03:51:22.746Z,3.10
2018-12-22T03:53:49.924Z,3.27
2018-12-22T03:56:16.989Z,3.27
2018-12-22T03:58:44.047Z,3.70
2018-12-22T04:01:11.383Z,3.27
2018-12-22T04:03:38.569Z,3.50
2018-12-22T04:06:05.709Z,3.73
2018-12-22T04:08:32.872Z,4.30
2018-12-22T04:10:59.948Z,4.27
2018-12-22T04:13:27.005Z,3.80
2018-12-22T04:15:54.171Z,3.97
2018-12-22T04:18:21.241Z,4.27
2018-12-22T04:20:48.317Z,4.27
2018-12-22T04:23:15.378Z,4.10
2018-12-22T04:25:42.428Z,4.00
2018-12-22T04:28:09.703Z,3.90
2018-12-22T04:30:36.775Z,4.07
2018-12-22T04:33:04.065Z,5.00
2018-12-22T04:35:31.237Z,4.37
2018-12-22T04:37:58.432Z,4.97
2018-12-22T04:40:25.487Z,4.13
2018-12-22T04:42:52.560Z,4.50
2018-12-22T04:45:19.626Z,4.70
2018-12-22T04:47:46.704Z,5.00
2018-12-22T04:50:13.776Z,4.90
2018-12-22T04:52:40.936Z,5.10
2018-12-22T04:55:08.081Z,6.10
2018-12-22T04:57:35.257Z,5.77
2018-12-22T05:00:02.963Z,2.60
2018-12-22T05:02:30.055Z,2.27
2018-12-22T05:04:57.231Z,1.90
2018-12-22T05:07:24.308Z,1.87
2018-12-22T05:09:51.380Z,2.50
2018-12-22T05:12:18.542Z,1.97
2018-12-22T05:14:45.616Z,1.43
2018-12-22T05:17:12.684Z,1.50
2018-12-22T05:19:39.776Z,1.17
2018-12-22T05:22:06.962Z,1.10
2018-12-22T05:24:34.023Z,1.30
2018-12-22T05:27:01.242Z,1.07
2018-12-22T05:29:28.337Z,1.20
2018-12-22T05:31:55.731Z,1.50
2018-12-22T05:34:22.808Z,1.00
2018-12-22T05:36:49.883Z,1.57
2018-12-22T05:39:16.952Z,1.10
2018-12-22T05:41:44.023Z,1.00
2018-12-22T05:44:11.215Z,1.20
2018-12-22T05:46:38.278Z,1.00
2018-12-22T05:49:05.464Z,1.20
2018-12-22T05:51:32.531Z,0.90
2018-12-22T05:53:59.598Z,0.90
2018-12-22T05:56:26.670Z,1.13
2018-12-22T05:58:53.830Z,1.03
2018-12-22T06:01:20.915Z,0.93
2018-12-22T06:03:47.981Z,1.30
2018-12-22T06:06:15.042Z,1.60
2018-12-22T06:08:42.099Z,1.80
2018-12-22T06:11:09.172Z,1.70
2018-12-22T06:13:36.242Z,2.17
2018-12-22T06:16:03.523Z,1.80
2018-12-22T06:18:30.698Z,1.80
2018-12-22T06:20:57.895Z,2.33
2018-12-22T06:23:26.720Z,2.20
2018-12-22T06:25:54.267Z,2.30
2018-12-22T06:28:21.433Z,2.57
2018-12-22T06:30:48.623Z,2.50
2018-12-22T06:33:15.715Z,2.77
2018-12-22T06:35:42.891Z,2.27
2018-12-22T06:38:10.112Z,2.80
2018-12-22T06:40:37.279Z,2.87
2018-12-22T06:43:04.449Z,3.23
2018-12-22T06:45:31.506Z,2.97
2018-12-22T06:47:58.583Z,2.83
2018-12-22T06:50:25.670Z,2.50
2018-12-22T06:52:52.743Z,2.50
2018-12-22T06:55:19.914Z,2.80
2018-12-22T06:57:47.074Z,2.83
2018-12-22T07:00:17.863Z,2.20
2018-12-22T07:02:43.480Z,2.10
2018-12-22T07:05:10.680Z,2.20
2018-12-22T07:07:37.750Z,2.00
2018-12-22T07:10:06.769Z,2.10
2018-12-22T07:12:33.842Z,2.03
2018-12-22T07:15:00.967Z,2.40
2018-12-22T07:17:28.040Z,1.93
2018-12-22T07:19:55.232Z,2.40
2018-12-22T07:22:23.538Z,2.30
2018-12-22T07:24:50.870Z,2.37
2018-12-22T07:27:18.150Z,2.00
2018-12-22T07:29:45.335Z,1.90
2018-12-22T07:32:12.422Z,2.30
2018-12-22T07:34:39.487Z,2.60
2018-12-22T07:37:06.668Z,2.07
2018-12-22T07:39:33.767Z,2.35
2018-12-22T07:42:00.826Z,2.27
2018-12-22T07:44:27.894Z,2.00
2018-12-22T07:46:54.950Z,2.10
2018-12-22T07:49:22.028Z,2.20
2018-12-22T07:51:49.121Z,2.00
2018-12-22T07:54:16.314Z,2.27
2018-12-22T07:56:43.370Z,2.03
2018-12-22T07:59:10.452Z,2.33
2018-12-22T08:01:37.519Z,1.80
2018-12-22T08:04:04.708Z,2.30
2018-12-22T08:06:31.783Z,1.80
2018-12-22T08:08:58.875Z,2.23
2018-12-22T08:11:26.063Z,1.97
2018-12-22T08:13:53.250Z,2.53
2018-12-22T08:16:20.324Z,2.13
2018-12-22T08:18:47.503Z,2.03
2018-12-22T08:21:14.699Z,2.47
2018-12-22T08:23:41.825Z,1.90
2018-12-22T08:26:09.135Z,2.17
2018-12-22T08:28:36.199Z,2.20
2018-12-22T08:31:03.390Z,2.17
2018-12-22T08:33:30.514Z,2.03
2018-12-22T08:35:57.587Z,2.60
2018-12-22T08:38:24.650Z,2.20
2018-12-22T08:40:51.733Z,2.83
2018-12-22T08:43:18.795Z,2.33
2018-12-22T08:45:45.975Z,3.00
2018-12-22T08:48:13.051Z,2.20
2018-12-22T08:50:40.128Z,3.07
2018-12-22T08:53:07.220Z,2.70
2018-12-22T08:55:34.410Z,2.80
2018-12-22T08:58:01.479Z,3.00
2018-12-22T09:00:28.643Z,3.00
2018-12-22T09:02:55.728Z,2.70
2018-12-22T09:05:22.827Z,2.60
2018-12-22T09:07:49.943Z,2.57
2018-12-22T09:10:17.007Z,2.87
2018-12-22T09:12:44.187Z,2.77
2018-12-22T09:15:11.365Z,3.00
2018-12-22T09:17:38.479Z,2.90
2018-12-22T09:20:08.455Z,2.80
2018-12-22T09:22:35.516Z,2.37
2018-12-22T09:25:02.824Z,2.80
2018-12-22T09:27:30.009Z,3.10
2018-12-22T09:29:57.075Z,2.80
2018-12-22T09:32:24.147Z,2.93
2018-12-22T09:34:51.223Z,2.90
2018-12-22T09:37:18.423Z,3.20
2018-12-22T09:39:45.523Z,3.00
2018-12-22T09:42:12.615Z,2.30
2018-12-22T09:44:39.888Z,2.57
2018-12-22T09:47:07.080Z,2.57
2018-12-22T09:49:34.143Z,2.73
2018-12-22T09:52:01.314Z,2.20
2018-12-22T09:54:28.494Z,2.13
2018-12-22T09:56:56.868Z,2.30
2018-12-22T09:59:24.041Z,2.30
2018-12-22T10:01:51.212Z,2.20
2018-12-22T10:04:18.284Z,2.23
2018-12-22T10:06:45.375Z,2.30
2018-12-22T10:09:12.479Z,2.87
2018-12-22T10:11:39.667Z,3.87
2018-12-22T10:14:06.771Z,4.47
2018-12-22T10:16:33.843Z,4.10
2018-12-22T10:19:00.949Z,4.50
2018-12-22T10:21:28.052Z,4.80
2018-12-22T10:23:55.103Z,4.00
2018-12-22T10:26:22.173Z,4.53
2018-12-22T10:28:49.351Z,3.90
2018-12-22T10:31:18.072Z,3.80
2018-12-22T10:33:45.568Z,3.57
2018-12-22T10:36:12.643Z,3.83
2018-12-22T10:38:39.835Z,3.57
2018-12-22T10:41:07.004Z,3.90
2018-12-22T10:43:34.198Z,3.30
2018-12-22T10:46:01.282Z,3.10
2018-12-22T10:48:28.432Z,3.10
2018-12-22T10:50:55.611Z,2.97
2018-12-22T10:53:22.758Z,3.30
2018-12-22T10:55:50.067Z,3.23
2018-12-22T10:58:17.122Z,2.97
2018-12-22T11:00:44.190Z,3.10
2018-12-22T11:03:11.472Z,3.20
2018-12-22T11:05:38.771Z,3.27
2018-12-22T11:08:05.847Z,3.17
2018-12-22T11:10:32.954Z,3.53
2018-12-22T11:13:01.150Z,2.93
2018-12-22T11:15:28.234Z,3.40
2018-12-22T11:17:55.328Z,3.03
2018-12-22T11:20:22.519Z,2.80
2018-12-22T11:22:49.581Z,3.50
2018-12-22T11:25:20.802Z,3.00
2018-12-22T11:27:47.858Z,3.80
2018-12-22T11:30:32.098Z,3.60
2018-12-22T11:32:59.276Z,3.47
2018-12-22T11:35:26.340Z,3.17
2018-12-22T11:37:53.536Z,3.70
2018-12-22T11:40:20.619Z,3.83
2018-12-22T11:42:48.017Z,3.70
2018-12-22T11:45:15.379Z,3.67
2018-12-22T11:50:11.864Z,2.90
2018-12-22T11:52:39.590Z,3.57
2018-12-22T11:55:07.714Z,3.30
2018-12-22T11:57:34.890Z,3.43
2018-12-22T12:00:02.190Z,2.97
2018-12-22T12:02:29.386Z,3.20
2018-12-22T12:04:56.534Z,3.33
2018-12-22T12:07:23.741Z,3.83
2018-12-22T12:09:50.809Z,3.40
2018-12-22T12:12:17.987Z,3.70
2018-12-22T12:14:45.539Z,3.67
2018-12-22T12:18:18.453Z,4.20
2018-12-22T12:20:45.651Z,4.00
2018-12-22T12:23:12.846Z,4.07
2018-12-22T12:25:40.026Z,3.40
2018-12-22T12:28:07.106Z,3.80
2018-12-22T12:30:34.423Z,4.13
2018-12-22T12:33:01.614Z,3.30
2018-12-22T12:35:28.788Z,3.40
2018-12-22T12:37:55.862Z,3.23
2018-12-22T12:40:23.071Z,3.07
2018-12-22T12:42:50.143Z,3.37
2018-12-22T12:45:17.246Z,3.37
2018-12-22T12:47:45.735Z,3.20
2018-12-22T12:50:15.444Z,3.70
2018-12-22T12:52:42.617Z,3.60
2018-12-22T12:55:10.861Z,3.50
2018-12-22T12:57:38.284Z,3.63
2018-12-22T13:00:07.948Z,3.37
2018-12-22T13:02:35.177Z,2.67
2018-12-22T13:05:02.475Z,3.03
2018-12-22T13:07:29.667Z,3.67
2018-12-22T13:09:56.844Z,3.20
2018-12-22T13:12:27.186Z,2.60
2018-12-22T13:14:54.316Z,2.70
2018-12-22T13:17:21.603Z,2.97
2018-12-22T13:19:48.850Z,2.90
2018-12-22T13:22:16.050Z,3.73
2018-12-22T13:24:43.111Z,2.50
2018-12-22T13:27:10.187Z,2.90
2018-12-22T13:29:37.270Z,3.20
2018-12-22T13:32:09.465Z,3.47
2018-12-22T13:34:33.415Z,3.30
2018-12-22T13:37:00.475Z,3.33
2018-12-22T13:39:28.547Z,2.80
2018-12-22T13:41:55.645Z,3.30
2018-12-22T13:44:22.723Z,2.90
2018-12-22T13:46:49.910Z,2.90
2018-12-22T13:49:17.309Z,3.13
2018-12-22T13:51:45.566Z,2.73
2018-12-22T13:54:15.190Z,2.70
2018-12-22T13:56:42.421Z,3.23
2018-12-22T13:59:09.556Z,3.50
2018-12-22T14:01:40.638Z,3.03
2018-12-22T14:04:07.934Z,3.40
2018-12-22T14:06:39.868Z,2.83
2018-12-22T14:09:08.117Z,3.40
2018-12-22T14:11:35.526Z,2.87
2018-12-22T14:14:03.127Z,3.57
2018-12-22T14:16:35.638Z,3.40
2018-12-22T14:19:06.127Z,3.63
2018-12-22T14:21:33.203Z,3.03
2018-12-22T14:24:10.480Z,3.60
2018-12-22T14:26:37.651Z,3.70
2018-12-22T14:29:04.844Z,2.93
2018-12-22T14:31:32.030Z,3.63
2018-12-22T14:34:03.599Z,3.57
2018-12-22T14:36:30.663Z,3.63
2018-12-22T14:38:57.734Z,4.03
2018-12-22T14:41:24.932Z,3.70
2018-12-22T14:43:52.010Z,3.40
2018-12-22T14:46:19.078Z,3.50
2018-12-22T14:48:46.155Z,3.80
2018-12-22T14:51:13.352Z,3.70
2018-12-22T14:53:40.440Z,3.87
2018-12-22T14:56:07.655Z,3.50
2018-12-22T14:58:35.720Z,3.70
2018-12-22T15:01:02.898Z,3.67
2018-12-22T15:03:29.987Z,4.20
2018-12-22T15:05:57.163Z,3.73
2018-12-22T15:08:24.243Z,3.80
2018-12-22T15:10:51.416Z,3.90
2018-12-22T15:13:18.484Z,3.97
2018-12-22T15:15:45.706Z,3.33
2018-12-22T15:18:12.854Z,3.93
2018-12-22T15:20:40.034Z,4.00
2018-12-22T15:23:09.931Z,3.83
2018-12-22T15:25:37.136Z,3.80
2018-12-22T15:28:04.409Z,3.60
2018-12-22T15:30:31.482Z,3.90
2018-12-22T15:32:58.675Z,4.10
2018-12-22T15:35:25.967Z,3.87
2018-12-22T15:37:53.155Z,3.63
2018-12-22T15:40:20.434Z,4.73
2018-12-22T15:42:47.794Z,4.27
2018-12-22T15:45:15.106Z,4.53
2018-12-22T15:47:42.914Z,4.37
2018-12-22T15:50:12.726Z,3.83
2018-12-22T15:52:39.934Z,4.00
2018-12-22T15:55:07.621Z,3.70
2018-12-22T15:57:34.713Z,4.23
2018-12-22T16:00:02.033Z,4.40
2018-12-22T16:02:29.102Z,4.10
2018-12-22T16:04:56.154Z,3.57
2018-12-22T16:07:23.315Z,4.10
2018-12-22T16:09:50.394Z,3.83
2018-12-22T16:12:17.494Z,4.30
2018-12-22T16:14:44.655Z,4.33
2018-12-22T16:17:11.810Z,4.63
2018-12-22T16:19:38.971Z,4.17
2018-12-22T16:22:06.062Z,3.77
2018-12-22T16:24:33.250Z,4.40
2018-12-22T16:27:00.427Z,4.17
2018-12-22T16:29:31.016Z,4.93
2018-12-22T16:31:58.195Z,4.63
2018-12-22T16:34:25.283Z,4.93
2018-12-22T16:36:52.440Z,3.90
2018-12-22T16:39:19.543Z,4.57
2018-12-22T16:41:46.823Z,4.17
2018-12-22T16:44:16.547Z,4.37
2018-12-22T16:46:43.676Z,4.33
2018-12-22T16:49:10.766Z,4.33
2018-12-22T16:51:37.947Z,4.40
2018-12-22T16:54:05.148Z,4.40
2018-12-22T16:56:32.452Z,4.03
2018-12-22T16:59:00.587Z,4.30
2018-12-22T17:01:36.339Z,4.57
2018-12-22T17:04:03.627Z,4.37
2018-12-22T17:06:31.775Z,5.17
2018-12-22T17:08:58.951Z,4.40
2018-12-22T17:11:26.180Z,4.70
2018-12-22T17:13:53.254Z,5.17
2018-12-22T17:16:20.367Z,5.17
2018-12-22T17:18:47.566Z,4.53
2018-12-22T17:21:22.480Z,4.40
2018-12-22T17:23:53.714Z,4.93
2018-12-22T17:26:22.226Z,4.30
2018-12-22T17:28:49.291Z,4.63
2018-12-22T17:31:16.473Z,5.00
2018-12-22T17:33:43.669Z,4.50
2018-12-22T17:36:10.855Z,5.57
2018-12-22T17:38:38.139Z,5.17
2018-12-22T17:41:05.431Z,5.03
2018-12-22T17:43:32.590Z,5.07
2018-12-22T17:45:59.818Z,4.97
2018-12-22T17:48:27.099Z,4.37
2018-12-22T17:50:54.390Z,4.70
2018-12-22T17:53:23.289Z,4.90
2018-12-22T17:55:50.534Z,4.93
2018-12-22T17:58:17.605Z,4.77
2018-12-22T18:00:44.899Z,4.27
2018-12-22T18:03:13.207Z,4.27
2018-12-22T18:05:40.280Z,4.93
2018-12-22T18:08:07.456Z,5.20
2018-12-22T18:10:34.776Z,4.80
2018-12-22T18:13:01.974Z,4.67
2018-12-22T18:15:29.369Z,4.47
2018-12-22T18:17:56.446Z,4.60
2018-12-22T18:20:23.531Z,4.20
2018-12-22T18:22:50.611Z,3.90
2018-12-22T18:25:18.093Z,4.20
2018-12-22T18:27:46.049Z,4.43
2018-12-22T18:30:17.915Z,4.40
2018-12-22T18:32:45.135Z,4.30
2018-12-22T18:35:12.450Z,4.43
2018-12-22T18:37:39.642Z,5.23
2018-12-22T18:40:12.480Z,4.37
2018-12-22T18:42:39.577Z,4.73
2018-12-22T18:45:08.918Z,4.23
2018-12-22T18:47:36.111Z,3.90
2018-12-22T18:50:05.275Z,4.60
2018-12-22T18:52:32.617Z,5.07
2018-12-22T18:54:59.966Z,4.47
2018-12-22T18:57:27.079Z,4.87
2018-12-22T18:59:54.158Z,4.60
2018-12-22T19:02:21.330Z,4.93
2018-12-22T19:04:48.556Z,4.97
2018-12-22T19:07:15.627Z,5.13
2018-12-22T19:09:44.599Z,4.40
2018-12-22T19:12:15.058Z,4.87
2018-12-22T19:14:52.183Z,4.33
2018-12-22T19:17:19.311Z,4.77
2018-12-22T19:19:46.504Z,4.83
2018-12-22T19:22:13.682Z,4.47
2018-12-22T19:24:40.747Z,4.17
2018-12-22T19:27:07.831Z,5.43
2018-12-22T19:29:34.910Z,4.30
2018-12-22T19:32:01.987Z,4.47
2018-12-22T19:34:29.079Z,5.23
2018-12-22T19:36:56.163Z,4.70
2018-12-22T19:39:23.231Z,5.00
2018-12-22T19:41:50.334Z,5.10
2018-12-22T19:44:17.404Z,5.33
2018-12-22T19:46:44.482Z,5.20
2018-12-22T19:49:11.547Z,4.90
2018-12-22T19:51:38.656Z,5.27
2018-12-22T19:54:05.860Z,5.27
2018-12-22T19:56:32.935Z,5.30
2018-12-22T19:59:00.061Z,4.97
2018-12-22T20:01:27.138Z,6.17
2018-12-22T20:04:01.864Z,5.60
2018-12-22T20:06:23.454Z,5.80
2018-12-22T20:08:50.562Z,5.45
2018-12-22T20:11:17.942Z,5.93
2018-12-22T20:13:45.014Z,5.77
2018-12-22T20:16:12.104Z,6.20
2018-12-22T20:18:39.187Z,5.93
2018-12-22T20:21:06.366Z,6.33
2018-12-22T20:23:33.452Z,6.10
2018-12-22T20:26:00.591Z,6.90
2018-12-22T20:28:27.667Z,7.27
2018-12-22T20:30:54.840Z,7.33
2018-12-22T20:33:22.023Z,7.33
2018-12-22T20:35:49.198Z,7.27
2018-12-22T20:38:16.259Z,7.20
2018-12-22T20:40:43.475Z,6.90
2018-12-22T20:43:10.535Z,6.93
2018-12-22T20:45:37.723Z,6.87
2018-12-22T20:48:04.780Z,6.50
2018-12-22T20:50:31.855Z,6.80
2018-12-22T20:52:58.924Z,6.73
2018-12-22T20:55:25.998Z,6.77
2018-12-22T20:57:53.068Z,6.60
2018-12-22T21:00:20.388Z,7.00
2018-12-22T21:02:47.575Z,7.13
2018-12-22T21:05:16.303Z,7.60
2018-12-22T21:07:43.484Z,6.33
2018-12-22T21:10:10.650Z,6.63
2018-12-22T21:12:37.711Z,6.67
2018-12-22T21:15:05.407Z,6.67
2018-12-22T21:17:32.474Z,7.10
2018-12-22T21:19:59.560Z,6.63
2018-12-22T21:22:26.659Z,6.90
2018-12-22T21:24:53.714Z,7.77
2018-12-22T21:27:20.777Z,8.03
2018-12-22T21:29:47.972Z,7.00
2018-12-22T21:32:15.066Z,7.50
2018-12-22T21:34:42.167Z,6.97
2018-12-22T21:37:09.252Z,6.90
2018-12-22T21:39:36.316Z,7.40
2018-12-22T21:42:03.508Z,7.17
2018-12-22T21:44:30.599Z,7.07
2018-12-22T21:46:57.791Z,7.40
2018-12-22T21:49:24.861Z,7.23
2018-12-22T21:51:51.948Z,7.67
2018-12-22T21:54:19.022Z,7.70
2018-12-22T21:56:46.075Z,8.43
2018-12-22T21:59:13.149Z,7.33
2018-12-22T22:01:40.230Z,7.37
2018-12-22T22:04:07.407Z,7.77
2018-12-22T22:06:34.490Z,8.07
2018-12-22T22:09:01.562Z,8.03
2018-12-22T22:11:28.642Z,8.47
2018-12-22T22:13:55.703Z,8.07
2018-12-22T22:16:23.038Z,7.97
2018-12-22T22:18:50.139Z,8.33
2018-12-22T22:21:17.323Z,9.10
2018-12-22T22:23:44.411Z,7.67
2018-12-22T22:26:11.545Z,9.23
2018-12-22T22:28:38.670Z,8.37
2018-12-22T22:31:05.746Z,7.87
2018-12-22T22:33:32.831Z,8.80
2018-12-22T22:35:59.904Z,8.20
2018-12-22T22:38:27.026Z,8.73
2018-12-22T22:40:54.151Z,9.07
2018-12-22T22:43:21.234Z,7.40
2018-12-22T22:45:48.331Z,8.17
2018-12-22T22:48:15.444Z,7.70
2018-12-22T22:50:42.859Z,9.10
2018-12-22T22:53:09.922Z,9.10
2018-12-22T22:55:36.995Z,8.57
2018-12-22T22:58:04.220Z,8.63
2018-12-22T23:00:33.639Z,8.63
2018-12-22T23:03:00.810Z,9.40
2018-12-22T23:05:27.894Z,10.90
2018-12-22T23:07:55.107Z,9.67
2018-12-22T23:10:22.190Z,10.67
2018-12-22T23:12:49.524Z,10.30
2018-12-22T23:15:16.719Z,8.63
2018-12-22T23:17:43.807Z,10.47
2018-12-22T23:20:10.991Z,9.70
2018-12-22T23:22:38.070Z,10.10
2018-12-22T23:25:05.374Z,10.23
2018-12-22T23:27:32.615Z,11.37
2018-12-22T23:29:59.691Z,10.57
2018-12-22T23:32:26.770Z,10.30
2018-12-22T23:34:53.863Z,9.97
2018-12-22T23:37:21.052Z,10.07
2018-12-22T23:39:48.294Z,10.77
2018-12-22T23:42:15.405Z,9.87
2018-12-22T23:44:42.691Z,10.70
2018-12-22T23:47:09.867Z,10.03
2018-12-22T23:49:37.064Z,10.47
2018-12-22T23:52:04.251Z,11.17
2018-12-22T23:54:31.331Z,9.73
2018-12-22T23:56:58.394Z,10.63
2018-12-22T23:59:25.575Z,10.57
